EDW34Z ZZZZ-EGLL
Flight info
| Callsign | EDW34Z |
|---|---|
| Flight time | N/A |
| Altitude | 38000 |
| Route | HON |
| Aircraft | A320/M-SDE3FGHIRWY/LB1 |
Departure
| Time | N/A |
|---|---|
| Airport | ZZZZ |
Arrival
| Time | 2026-05-03 20:48 |
|---|---|
| Airport | London Heathrow Airport (EGLL) |
| Time | Latitude | Longitude | Altitude | Speed | Heading |
|---|---|---|---|---|---|
| 2026-05-03 20:21 | 52.38788 | -0.93460 | 21193 ft | 270 kts | 270° |
| 2026-05-03 20:22 | 52.38696 | -0.96445 | 20568 ft | 263 kts | 250° |
| 2026-05-03 20:22 | 52.37910 | -0.99060 | 20080 ft | 253 kts | 229° |
| 2026-05-03 20:22 | 52.36594 | -1.00959 | 19826 ft | 254 kts | 209° |
| 2026-05-03 20:22 | 52.34937 | -1.01896 | 19799 ft | 254 kts | 191° |
| 2026-05-03 20:23 | 52.33174 | -1.02344 | 19649 ft | 257 kts | 192° |
| 2026-05-03 20:23 | 52.31383 | -1.02812 | 19317 ft | 265 kts | 188° |
| 2026-05-03 20:23 | 52.29533 | -1.03179 | 18824 ft | 270 kts | 186° |
| 2026-05-03 20:23 | 52.27657 | -1.03500 | 18432 ft | 270 kts | 186° |
| 2026-05-03 20:24 | 52.25809 | -1.03863 | 18070 ft | 270 kts | 187° |
| 2026-05-03 20:24 | 52.23955 | -1.04276 | 17702 ft | 268 kts | 188° |
| 2026-05-03 20:24 | 52.22113 | -1.04732 | 17332 ft | 267 kts | 189° |
| 2026-05-03 20:24 | 52.20900 | -1.05058 | 17104 ft | 265 kts | 189° |
| 2026-05-03 20:25 | 52.19092 | -1.05584 | 16773 ft | 263 kts | 191° |
| 2026-05-03 20:25 | 52.17303 | -1.06140 | 16448 ft | 261 kts | 189° |
| 2026-05-03 20:25 | 52.15473 | -1.06560 | 16050 ft | 276 kts | 189° |
| 2026-05-03 20:25 | 52.13485 | -1.06979 | 15645 ft | 296 kts | 187° |
| 2026-05-03 20:26 | 52.10757 | -1.07456 | 15152 ft | 298 kts | 186° |
| 2026-05-03 20:26 | 52.09364 | -1.07705 | 15014 ft | 297 kts | 187° |
| 2026-05-03 20:26 | 52.07310 | -1.08127 | 14929 ft | 298 kts | 189° |
| 2026-05-03 20:26 | 52.05262 | -1.08602 | 14909 ft | 298 kts | 189° |
| 2026-05-03 20:27 | 52.03212 | -1.09106 | 14905 ft | 298 kts | 189° |
| 2026-05-03 20:27 | 52.01163 | -1.09607 | 14911 ft | 298 kts | 189° |
| 2026-05-03 20:27 | 51.99103 | -1.10024 | 14864 ft | 300 kts | 184° |
| 2026-05-03 20:27 | 51.97020 | -1.09768 | 14501 ft | 300 kts | 169° |
| 2026-05-03 20:28 | 51.95058 | -1.08761 | 14183 ft | 299 kts | 158° |
| 2026-05-03 20:28 | 51.93246 | -1.07103 | 13827 ft | 300 kts | 146° |
| 2026-05-03 20:28 | 51.91641 | -1.04953 | 13363 ft | 299 kts | 142° |
| 2026-05-03 20:28 | 51.90062 | -1.02777 | 12860 ft | 297 kts | 142° |
| 2026-05-03 20:29 | 51.88488 | -1.00622 | 12367 ft | 295 kts | 142° |
| 2026-05-03 20:29 | 51.86925 | -0.98484 | 11918 ft | 294 kts | 142° |
| 2026-05-03 20:29 | 51.85459 | -0.96192 | 11533 ft | 294 kts | 130° |
| 2026-05-03 20:29 | 51.84399 | -0.93350 | 11122 ft | 296 kts | 118° |
| 2026-05-03 20:30 | 51.83501 | -0.90367 | 10729 ft | 295 kts | 118° |
| 2026-05-03 20:30 | 51.82603 | -0.87391 | 10351 ft | 293 kts | 118° |
| 2026-05-03 20:30 | 51.81717 | -0.84478 | 9985 ft | 292 kts | 118° |
| 2026-05-03 20:30 | 51.80820 | -0.81549 | 9597 ft | 290 kts | 118° |
| 2026-05-03 20:31 | 51.79924 | -0.78640 | 9200 ft | 287 kts | 118° |
| 2026-05-03 20:31 | 51.79037 | -0.75764 | 8861 ft | 283 kts | 118° |
| 2026-05-03 20:31 | 51.78179 | -0.72973 | 8725 ft | 271 kts | 118° |
| 2026-05-03 20:31 | 51.77355 | -0.70293 | 8593 ft | 260 kts | 118° |
| 2026-05-03 20:32 | 51.76564 | -0.67725 | 8413 ft | 251 kts | 118° |
| 2026-05-03 20:32 | 51.75788 | -0.65216 | 8113 ft | 248 kts | 118° |
| 2026-05-03 20:32 | 51.75022 | -0.62755 | 7953 ft | 241 kts | 118° |
| 2026-05-03 20:32 | 51.74284 | -0.60379 | 7802 ft | 235 kts | 118° |
| 2026-05-03 20:33 | 51.73557 | -0.58059 | 7656 ft | 236 kts | 118° |
| 2026-05-03 20:33 | 51.72789 | -0.55652 | 7500 ft | 244 kts | 119° |
| 2026-05-03 20:33 | 51.71853 | -0.53373 | 7363 ft | 244 kts | 127° |
| 2026-05-03 20:33 | 51.70854 | -0.51164 | 7209 ft | 243 kts | 127° |
| 2026-05-03 20:34 | 51.69860 | -0.48958 | 7059 ft | 243 kts | 127° |
| 2026-05-03 20:34 | 51.68868 | -0.46762 | 6954 ft | 242 kts | 127° |
| 2026-05-03 20:34 | 51.67877 | -0.44574 | 6915 ft | 242 kts | 127° |
| 2026-05-03 20:34 | 51.66878 | -0.42388 | 6919 ft | 242 kts | 127° |
| 2026-05-03 20:35 | 51.65881 | -0.40206 | 6922 ft | 242 kts | 127° |
| 2026-05-03 20:35 | 51.64883 | -0.38021 | 6921 ft | 242 kts | 127° |
| 2026-05-03 20:35 | 51.63884 | -0.35827 | 6940 ft | 241 kts | 127° |
| 2026-05-03 20:35 | 51.62893 | -0.33650 | 6942 ft | 241 kts | 127° |
| 2026-05-03 20:36 | 51.61920 | -0.31487 | 6760 ft | 241 kts | 127° |
| 2026-05-03 20:36 | 51.60936 | -0.29299 | 6562 ft | 241 kts | 127° |
| 2026-05-03 20:36 | 51.59949 | -0.27126 | 6392 ft | 240 kts | 127° |
| 2026-05-03 20:36 | 51.58960 | -0.24961 | 6244 ft | 240 kts | 127° |
| 2026-05-03 20:37 | 51.57973 | -0.22809 | 6092 ft | 239 kts | 127° |
| 2026-05-03 20:37 | 51.56983 | -0.20665 | 5999 ft | 238 kts | 128° |
| 2026-05-03 20:37 | 51.55991 | -0.18521 | 5848 ft | 238 kts | 127° |
| 2026-05-03 20:37 | 51.55029 | -0.16402 | 5684 ft | 230 kts | 127° |
| 2026-05-03 20:38 | 51.54099 | -0.14351 | 5445 ft | 225 kts | 129° |
| 2026-05-03 20:38 | 51.52886 | -0.12892 | 5147 ft | 218 kts | 167° |
| 2026-05-03 20:38 | 51.51418 | -0.13088 | 4810 ft | 214 kts | 205° |
| 2026-05-03 20:38 | 51.50194 | -0.14354 | 4559 ft | 203 kts | 216° |
| 2026-05-03 20:39 | 51.49101 | -0.15463 | 4284 ft | 194 kts | 214° |
| 2026-05-03 20:39 | 51.48218 | -0.16943 | 4181 ft | 176 kts | 239° |
| 2026-05-03 20:39 | 51.47831 | -0.18707 | 4026 ft | 161 kts | 262° |
| 2026-05-03 20:39 | 51.47805 | -0.20416 | 3899 ft | 146 kts | 269° |
| 2026-05-03 20:40 | 51.47584 | -0.21966 | 3587 ft | 142 kts | 240° |
| 2026-05-03 20:40 | 51.46914 | -0.23088 | 3324 ft | 140 kts | 210° |
| 2026-05-03 20:40 | 51.45979 | -0.23531 | 3131 ft | 142 kts | 184° |
| 2026-05-03 20:40 | 51.44990 | -0.23580 | 3034 ft | 142 kts | 174° |
| 2026-05-03 20:41 | 51.44060 | -0.23066 | 3010 ft | 143 kts | 146° |
| 2026-05-03 20:41 | 51.43379 | -0.21917 | 3011 ft | 144 kts | 119° |
| 2026-05-03 20:41 | 51.43097 | -0.20394 | 3011 ft | 144 kts | 95° |
| 2026-05-03 20:41 | 51.42976 | -0.18805 | 2999 ft | 144 kts | 97° |
| 2026-05-03 20:42 | 51.42909 | -0.17212 | 3008 ft | 143 kts | 82° |
| 2026-05-03 20:42 | 51.43242 | -0.15738 | 3009 ft | 144 kts | 55° |
| 2026-05-03 20:42 | 51.43964 | -0.14659 | 3002 ft | 143 kts | 28° |
| 2026-05-03 20:42 | 51.44912 | -0.14231 | 3009 ft | 143 kts | 1° |
| 2026-05-03 20:43 | 51.45856 | -0.14551 | 2851 ft | 138 kts | 332° |
| 2026-05-03 20:43 | 51.46648 | -0.15436 | 2531 ft | 137 kts | 322° |
| 2026-05-03 20:43 | 51.47393 | -0.16408 | 2519 ft | 140 kts | 310° |
| 2026-05-03 20:43 | 51.47803 | -0.17792 | 2513 ft | 139 kts | 274° |
| 2026-05-03 20:44 | 51.47797 | -0.19326 | 2505 ft | 139 kts | 272° |
| 2026-05-03 20:44 | 51.47810 | -0.20877 | 2507 ft | 139 kts | 269° |
| 2026-05-03 20:44 | 51.47805 | -0.22433 | 2504 ft | 140 kts | 269° |
| 2026-05-03 20:44 | 51.47801 | -0.23994 | 2413 ft | 139 kts | 269° |
| 2026-05-03 20:45 | 51.47800 | -0.25550 | 2266 ft | 139 kts | 270° |
| 2026-05-03 20:45 | 51.47802 | -0.27099 | 2097 ft | 138 kts | 270° |
| 2026-05-03 20:45 | 51.47802 | -0.28640 | 1918 ft | 137 kts | 270° |
| 2026-05-03 20:45 | 51.47800 | -0.30162 | 1738 ft | 136 kts | 270° |
| 2026-05-03 20:46 | 51.47798 | -0.31677 | 1548 ft | 135 kts | 270° |
| 2026-05-03 20:46 | 51.47796 | -0.33188 | 1363 ft | 135 kts | 269° |
| 2026-05-03 20:46 | 51.47794 | -0.34697 | 1162 ft | 135 kts | 270° |
| 2026-05-03 20:46 | 51.47793 | -0.36186 | 970 ft | 135 kts | 269° |
| 2026-05-03 20:47 | 51.47789 | -0.37691 | 786 ft | 134 kts | 269° |
| 2026-05-03 20:47 | 51.47786 | -0.39193 | 614 ft | 134 kts | 268° |
| 2026-05-03 20:47 | 51.47782 | -0.40693 | 453 ft | 134 kts | 269° |
| 2026-05-03 20:47 | 51.47775 | -0.42193 | 255 ft | 134 kts | 268° |
| 2026-05-03 20:48 | 51.47768 | -0.43682 | 101 ft | 132 kts | 269° |
| 2026-05-03 20:48 | 51.47759 | -0.44972 | 92 ft | 96 kts | 269° |
| 2026-05-03 20:48 | 51.47758 | -0.45764 | 85 ft | 46 kts | 270° |
| 2026-05-03 20:48 | 51.47754 | -0.46094 | 90 ft | 17 kts | 254° |
| 2026-05-03 20:49 | 51.47666 | -0.46104 | 88 ft | 16 kts | 144° |
| 2026-05-03 20:49 | 51.47620 | -0.46049 | 85 ft | 4 kts | 142° |
| 2026-05-03 20:49 | 51.47605 | -0.46025 | 85 ft | 2 kts | 129° |
| 2026-05-03 20:49 | 51.47598 | -0.46010 | 85 ft | 1 kts | 136° |
| 2026-05-03 20:50 | 51.47595 | -0.46010 | 89 ft | 1 kts | 156° |
| 2026-05-03 20:50 | 51.47580 | -0.46053 | 87 ft | 6 kts | 237° |
| 2026-05-03 20:50 | 51.47531 | -0.46052 | 86 ft | 10 kts | 130° |
| 2026-05-03 20:50 | 51.47517 | -0.45954 | 85 ft | 9 kts | 91° |
| 2026-05-03 20:51 | 51.47518 | -0.45857 | 85 ft | 8 kts | 89° |
| 2026-05-03 20:51 | 51.47513 | -0.45759 | 87 ft | 10 kts | 97° |
| 2026-05-03 20:51 | 51.47508 | -0.45650 | 86 ft | 11 kts | 90° |
| 2026-05-03 20:51 | 51.47508 | -0.45525 | 85 ft | 11 kts | 92° |
| 2026-05-03 20:52 | 51.47507 | -0.45408 | 85 ft | 10 kts | 91° |
| 2026-05-03 20:52 | 51.47506 | -0.45298 | 85 ft | 10 kts | 91° |
| 2026-05-03 20:52 | 51.47505 | -0.45193 | 85 ft | 9 kts | 89° |
| 2026-05-03 20:52 | 51.47506 | -0.45095 | 88 ft | 9 kts | 89° |
| 2026-05-03 20:53 | 51.47507 | -0.45002 | 88 ft | 8 kts | 89° |
| 2026-05-03 20:53 | 51.47508 | -0.44915 | 86 ft | 8 kts | 90° |
| 2026-05-03 20:53 | 51.47508 | -0.44831 | 85 ft | 7 kts | 89° |
| 2026-05-03 20:53 | 51.47509 | -0.44751 | 89 ft | 7 kts | 88° |
| 2026-05-03 20:54 | 51.47510 | -0.44674 | 89 ft | 8 kts | 90° |
| 2026-05-03 20:54 | 51.47504 | -0.44501 | 85 ft | 7 kts | 91° |
| 2026-05-03 20:54 | 51.47504 | -0.44421 | 86 ft | 7 kts | 89° |
| 2026-05-03 20:55 | 51.47505 | -0.44336 | 86 ft | 7 kts | 89° |
| 2026-05-03 20:55 | 51.47505 | -0.44254 | 85 ft | 7 kts | 89° |
| 2026-05-03 20:55 | 51.47506 | -0.44178 | 88 ft | 7 kts | 90° |
| 2026-05-03 20:55 | 51.47499 | -0.44094 | 86 ft | 9 kts | 121° |
| 2026-05-03 20:56 | 51.47436 | -0.44062 | 89 ft | 10 kts | 177° |
| 2026-05-03 20:56 | 51.47363 | -0.44063 | 85 ft | 10 kts | 180° |
| 2026-05-03 20:56 | 51.47295 | -0.44064 | 85 ft | 9 kts | 180° |
| 2026-05-03 20:56 | 51.47232 | -0.44062 | 85 ft | 9 kts | 179° |
| 2026-05-03 20:57 | 51.47174 | -0.44060 | 88 ft | 8 kts | 179° |
| 2026-05-03 20:57 | 51.47120 | -0.44060 | 85 ft | 8 kts | 180° |
| 2026-05-03 20:57 | 51.47069 | -0.44060 | 85 ft | 7 kts | 179° |
| 2026-05-03 20:57 | 51.47027 | -0.44072 | 86 ft | 3 kts | 236° |
| 2026-05-03 20:58 | 51.47024 | -0.44110 | 85 ft | 4 kts | 258° |
| 2026-05-03 20:58 | 51.47021 | -0.44174 | 85 ft | 6 kts | 271° |
| 2026-05-03 20:58 | 51.47021 | -0.44200 | 85 ft | 0 kts | 270° |